createdAt,value
2023-04-16T00:00:07.797Z,8.61
2023-04-16T00:03:10.447Z,8.60
2023-04-16T00:06:14.789Z,8.58
2023-04-16T00:09:17.311Z,8.56
2023-04-16T00:12:19.856Z,8.54
2023-04-16T00:15:22.447Z,8.52
2023-04-16T00:18:25.083Z,8.50
2023-04-16T00:21:29.052Z,8.51
2023-04-16T00:24:31.544Z,8.52
2023-04-16T00:27:34.047Z,8.52
2023-04-16T00:30:36.620Z,8.52
2023-04-16T00:33:39.186Z,8.52
2023-04-16T00:36:43.113Z,8.50
2023-04-16T00:39:45.648Z,8.49
2023-04-16T00:42:48.226Z,8.46
2023-04-16T00:45:50.780Z,8.44
2023-04-16T00:48:54.641Z,8.43
2023-04-16T00:51:58.608Z,8.43
2023-04-16T00:55:01.214Z,8.44
2023-04-16T00:58:04.120Z,8.42
2023-04-16T01:01:06.803Z,8.41
2023-04-16T01:04:09.599Z,8.42
2023-04-16T01:07:13.566Z,8.42
2023-04-16T01:10:16.109Z,8.42
2023-04-16T01:13:18.617Z,8.43
2023-04-16T01:16:21.201Z,8.44
2023-04-16T01:19:23.808Z,8.44
2023-04-16T01:22:27.912Z,8.42
2023-04-16T01:25:30.488Z,8.42
2023-04-16T01:28:33.034Z,8.41
2023-04-16T01:31:35.621Z,8.38
2023-04-16T01:34:38.213Z,8.35
2023-04-16T01:37:42.127Z,8.36
2023-04-16T01:40:44.626Z,8.36
2023-04-16T01:43:47.166Z,8.35
2023-04-16T01:46:49.808Z,8.35
2023-04-16T01:49:52.399Z,8.31
2023-04-16T01:52:56.276Z,8.29
2023-04-16T01:55:58.848Z,8.27
2023-04-16T01:59:01.431Z,8.28
2023-04-16T02:02:04.539Z,8.27
2023-04-16T02:05:07.603Z,8.27
2023-04-16T02:08:11.481Z,8.28
2023-04-16T02:11:13.988Z,8.25
2023-04-16T02:14:16.500Z,8.25
2023-04-16T02:17:19.079Z,8.23
2023-04-16T02:20:21.712Z,8.22
2023-04-16T02:23:25.630Z,8.19
2023-04-16T02:26:29.154Z,8.19
2023-04-16T02:29:31.911Z,8.18
2023-04-16T02:32:34.478Z,8.15
2023-04-16T02:35:37.123Z,8.14
2023-04-16T02:38:41.144Z,8.13
2023-04-16T02:41:43.700Z,8.11
2023-04-16T02:44:46.205Z,8.11
2023-04-16T02:47:48.899Z,8.08
2023-04-16T02:50:51.471Z,8.06
2023-04-16T02:53:55.403Z,8.03
2023-04-16T02:56:57.998Z,8.01
2023-04-16T03:00:00.633Z,7.99
2023-04-16T03:03:03.278Z,7.99
2023-04-16T03:06:06.012Z,8.00
2023-04-16T03:09:10.171Z,7.99
2023-04-16T03:12:12.870Z,7.99
2023-04-16T03:15:15.420Z,7.98
2023-04-16T03:18:17.977Z,7.95
2023-04-16T03:21:20.639Z,7.94
2023-04-16T03:24:24.677Z,7.91
2023-04-16T03:27:27.175Z,7.91
2023-04-16T03:30:29.702Z,7.90
2023-04-16T03:33:32.256Z,7.91
2023-04-16T03:36:34.813Z,7.90
2023-04-16T03:39:38.715Z,7.88
2023-04-16T03:42:41.381Z,7.85
2023-04-16T03:45:45.296Z,7.84
2023-04-16T03:48:47.892Z,7.83
2023-04-16T03:51:50.485Z,7.80
2023-04-16T03:54:54.376Z,7.79
2023-04-16T03:57:57.406Z,7.79
2023-04-16T04:00:59.978Z,7.78
2023-04-16T04:04:02.670Z,7.78
2023-04-16T04:07:06.438Z,7.78
2023-04-16T04:10:11.180Z,7.77
2023-04-16T04:13:13.759Z,7.77
2023-04-16T04:16:16.402Z,7.76
2023-04-16T04:19:18.970Z,7.76
2023-04-16T04:22:21.549Z,7.76
2023-04-16T04:25:25.758Z,7.75
2023-04-16T04:28:28.264Z,7.76
2023-04-16T04:31:30.906Z,7.74
2023-04-16T04:34:33.543Z,7.73
2023-04-16T04:37:36.157Z,7.73
2023-04-16T04:40:40.037Z,7.73
2023-04-16T04:43:42.573Z,7.71
2023-04-16T04:46:45.129Z,7.70
2023-04-16T04:49:47.697Z,7.69
2023-04-16T04:52:50.412Z,7.67
2023-04-16T04:55:57.571Z,7.68
2023-04-16T04:59:08.038Z,7.68
2023-04-16T05:02:10.875Z,7.66
2023-04-16T05:05:13.551Z,7.67
2023-04-16T05:08:16.171Z,7.66
2023-04-16T05:11:20.035Z,7.67
2023-04-16T05:14:22.533Z,7.66
2023-04-16T05:17:25.058Z,7.67
2023-04-16T05:20:27.629Z,7.68
2023-04-16T05:23:30.259Z,7.68
2023-04-16T05:26:34.153Z,7.69
2023-04-16T05:29:36.729Z,7.68
2023-04-16T05:32:40.498Z,7.68
2023-04-16T05:35:43.104Z,7.69
2023-04-16T05:38:45.613Z,7.69
2023-04-16T05:41:49.471Z,7.69
2023-04-16T05:44:52.068Z,7.68
2023-04-16T05:47:54.704Z,7.68
2023-04-16T05:50:57.313Z,7.69
2023-04-16T05:53:59.861Z,7.71
2023-04-16T05:57:04.380Z,7.74
2023-04-16T06:00:08.393Z,7.73
2023-04-16T06:03:11.111Z,7.73
2023-04-16T06:06:13.796Z,7.76
2023-04-16T06:09:16.573Z,7.73
2023-04-16T06:12:20.620Z,7.73
2023-04-16T06:15:23.212Z,7.74
2023-04-16T06:18:25.790Z,7.71
2023-04-16T06:21:28.373Z,7.73
2023-04-16T06:24:31.005Z,7.73
2023-04-16T06:27:34.928Z,7.73
2023-04-16T06:30:37.486Z,7.73
2023-04-16T06:33:40.061Z,7.74
2023-04-16T06:36:42.580Z,7.75
2023-04-16T06:39:45.180Z,7.77
2023-04-16T06:42:49.105Z,7.78
2023-04-16T06:45:52.101Z,7.78
2023-04-16T06:48:54.619Z,7.79
2023-04-16T06:51:57.175Z,7.78
2023-04-16T06:54:59.710Z,7.79
2023-04-16T06:58:03.612Z,7.81
2023-04-16T07:01:06.393Z,7.81
2023-04-16T07:04:09.329Z,7.80
2023-04-16T07:07:12.005Z,7.81
2023-04-16T07:10:14.680Z,7.84
2023-04-16T07:13:19.482Z,7.84
2023-04-16T07:16:22.092Z,7.84
2023-04-16T07:19:24.731Z,7.85
2023-04-16T07:22:27.236Z,7.86
2023-04-16T07:25:29.784Z,7.86
2023-04-16T07:28:33.703Z,7.86
2023-04-16T07:31:36.291Z,7.86
2023-04-16T07:34:38.888Z,7.88
2023-04-16T07:37:41.481Z,7.89
2023-04-16T07:40:44.007Z,7.89
2023-04-16T07:43:47.893Z,7.92
2023-04-16T07:46:50.494Z,7.91
2023-04-16T07:49:53.276Z,7.92
2023-04-16T07:52:55.848Z,7.93
2023-04-16T07:55:58.424Z,7.94
2023-04-16T07:59:11.064Z,7.96
2023-04-16T08:02:17.536Z,7.95
2023-04-16T08:05:20.384Z,7.97
2023-04-16T08:08:23.003Z,7.98
2023-04-16T08:11:25.656Z,7.97
2023-04-16T08:14:29.575Z,7.99
2023-04-16T08:17:34.336Z,7.98
2023-04-16T08:20:36.878Z,7.98
2023-04-16T08:23:39.396Z,7.98
2023-04-16T08:26:41.895Z,7.99
2023-04-16T08:29:45.800Z,8.04
2023-04-16T08:32:50.032Z,8.05
2023-04-16T08:35:52.828Z,8.06
2023-04-16T08:38:55.380Z,8.07
2023-04-16T08:41:58.036Z,8.10
2023-04-16T08:45:07.469Z,8.12
2023-04-16T08:48:10.875Z,8.15
2023-04-16T08:51:13.408Z,8.18
2023-04-16T08:54:16.089Z,8.19
2023-04-16T08:57:20.153Z,8.23
2023-04-16T09:00:24.265Z,8.21
2023-04-16T09:03:26.943Z,8.21
2023-04-16T09:06:29.578Z,8.22
2023-04-16T09:09:34.555Z,8.24
2023-04-16T09:12:37.182Z,8.25
2023-04-16T09:15:41.137Z,8.26
2023-04-16T09:18:43.732Z,8.25
2023-04-16T09:21:47.302Z,8.25
2023-04-16T09:24:49.822Z,8.26
2023-04-16T09:27:52.396Z,8.29
2023-04-16T09:31:12.870Z,8.30
2023-04-16T09:34:15.640Z,8.28
2023-04-16T09:37:18.211Z,8.27
2023-04-16T09:40:24.648Z,8.28
2023-04-16T09:43:27.839Z,8.31
2023-04-16T09:46:32.650Z,8.32
2023-04-16T09:49:35.441Z,8.32
2023-04-16T09:52:38.378Z,8.31
2023-04-16T09:55:40.900Z,8.30
2023-04-16T09:58:43.472Z,8.30
2023-04-16T10:01:49.394Z,8.28
2023-04-16T10:04:53.091Z,8.32
2023-04-16T10:07:55.825Z,8.32
2023-04-16T10:10:58.424Z,8.34
2023-04-16T10:14:01.431Z,8.39
2023-04-16T10:17:06.209Z,8.42
2023-04-16T10:20:09.275Z,8.45
2023-04-16T10:23:11.848Z,8.45
2023-04-16T10:26:14.387Z,8.48
2023-04-16T10:29:16.979Z,8.51
2023-04-16T10:32:21.737Z,8.54
2023-04-16T10:35:26.121Z,8.53
2023-04-16T10:38:28.850Z,8.51
2023-04-16T10:41:33.433Z,8.55
2023-04-16T10:44:36.032Z,8.57
2023-04-16T10:47:43.177Z,8.58
2023-04-16T10:51:00.102Z,8.60
2023-04-16T10:54:04.992Z,8.61
2023-04-16T10:57:08.407Z,8.62
2023-04-16T11:00:22.936Z,8.65
2023-04-16T11:03:27.385Z,8.67
2023-04-16T11:06:32.092Z,8.68
2023-04-16T11:09:56.122Z,8.69
2023-04-16T11:12:58.756Z,8.68
2023-04-16T11:16:02.231Z,8.69
2023-04-16T11:19:06.111Z,8.72
2023-04-16T11:22:08.657Z,8.74
2023-04-16T11:25:11.215Z,8.78
2023-04-16T11:28:13.713Z,8.81
2023-04-16T11:31:16.524Z,8.83
2023-04-16T11:34:20.665Z,8.85
2023-04-16T11:37:23.632Z,8.87
2023-04-16T11:40:26.382Z,8.87
2023-04-16T11:43:28.889Z,8.89
2023-04-16T11:46:39.145Z,8.94
2023-04-16T11:49:43.091Z,8.98
2023-04-16T11:52:45.631Z,9.00
2023-04-16T11:55:48.230Z,9.02
2023-04-16T11:59:09.417Z,8.99
2023-04-16T12:02:12.197Z,9.00
2023-04-16T12:05:30.151Z,9.02
2023-04-16T12:08:32.908Z,9.04
2023-04-16T12:11:41.475Z,9.02
2023-04-16T12:14:50.975Z,9.06
2023-04-16T12:18:03.394Z,9.09
2023-04-16T12:21:07.888Z,9.14
2023-04-16T12:24:11.353Z,9.19
2023-04-16T12:27:13.860Z,9.19
2023-04-16T12:30:16.757Z,9.21
2023-04-16T12:33:21.049Z,9.22
2023-04-16T12:36:24.923Z,9.25
2023-04-16T12:39:27.480Z,9.28
2023-04-16T12:42:35.559Z,9.33
2023-04-16T12:45:38.859Z,9.35
2023-04-16T12:48:41.567Z,9.39
2023-04-16T12:51:45.524Z,9.40
2023-04-16T12:54:48.075Z,9.40
2023-04-16T12:57:52.664Z,9.41
2023-04-16T13:00:55.197Z,9.42
2023-04-16T13:03:58.075Z,9.43
2023-04-16T13:07:02.218Z,9.41
2023-04-16T13:10:05.225Z,9.42
2023-04-16T13:13:07.796Z,9.41
2023-04-16T13:16:10.466Z,9.41
2023-04-16T13:19:13.140Z,9.42
2023-04-16T13:22:17.172Z,9.45
2023-04-16T13:25:19.829Z,9.46
2023-04-16T13:28:22.383Z,9.48
2023-04-16T13:31:24.995Z,9.51
2023-04-16T13:34:27.599Z,9.52
2023-04-16T13:37:31.497Z,9.52
2023-04-16T13:40:34.066Z,9.54
2023-04-16T13:43:37.858Z,9.56
2023-04-16T13:46:40.457Z,9.57
2023-04-16T13:49:43.038Z,9.63
2023-04-16T13:52:46.926Z,9.69
2023-04-16T13:55:49.856Z,9.72
2023-04-16T13:58:52.389Z,9.76
2023-04-16T14:01:55.041Z,9.79
2023-04-16T14:04:57.634Z,9.81
2023-04-16T14:08:01.518Z,9.83
2023-04-16T14:11:05.465Z,9.82
2023-04-16T14:14:08.055Z,9.82
2023-04-16T14:17:10.693Z,9.82
2023-04-16T14:20:14.054Z,9.78
2023-04-16T14:23:18.004Z,9.77
2023-04-16T14:26:20.634Z,9.75
2023-04-16T14:29:23.183Z,9.73
2023-04-16T14:32:25.722Z,9.72
2023-04-16T14:35:28.403Z,9.70
2023-04-16T14:38:32.438Z,9.69
2023-04-16T14:41:35.156Z,9.67
2023-04-16T14:44:37.921Z,9.68
2023-04-16T14:47:45.636Z,9.70
2023-04-16T14:50:48.363Z,9.72
2023-04-16T14:53:52.224Z,9.74
2023-04-16T14:56:54.770Z,9.76
2023-04-16T14:59:57.288Z,9.77
2023-04-16T15:03:00.015Z,9.78
2023-04-16T15:06:02.645Z,9.80
2023-04-16T15:09:07.404Z,9.82
2023-04-16T15:12:09.989Z,9.81
2023-04-16T15:15:12.758Z,9.81
2023-04-16T15:18:16.328Z,9.81
2023-04-16T15:21:18.936Z,9.78
2023-04-16T15:24:22.859Z,9.75
2023-04-16T15:27:25.568Z,9.72
2023-04-16T15:30:28.109Z,9.69
2023-04-16T15:33:30.695Z,9.67
2023-04-16T15:36:33.279Z,9.66
2023-04-16T15:39:37.154Z,9.61
2023-04-16T15:42:39.877Z,9.60
2023-04-16T15:45:42.533Z,9.59
2023-04-16T15:48:45.215Z,9.60
2023-04-16T15:51:47.787Z,9.59
2023-04-16T15:54:51.676Z,9.57
2023-04-16T15:57:54.179Z,9.55
2023-04-16T16:00:56.704Z,9.56
2023-04-16T16:03:59.364Z,9.55
2023-04-16T16:07:03.020Z,9.53
2023-04-16T16:10:08.189Z,9.52
2023-04-16T16:13:13.079Z,9.52
2023-04-16T16:16:16.037Z,9.52
2023-04-16T16:19:18.680Z,9.53
2023-04-16T16:22:23.534Z,9.51
2023-04-16T16:25:27.473Z,9.52
2023-04-16T16:28:29.981Z,9.50
2023-04-16T16:31:32.561Z,9.50
2023-04-16T16:34:35.392Z,9.51
2023-04-16T16:37:38.220Z,9.52
2023-04-16T16:40:42.159Z,9.54
2023-04-16T16:43:44.653Z,9.52
2023-04-16T16:46:48.090Z,9.52
2023-04-16T16:49:51.143Z,9.52
2023-04-16T16:52:53.716Z,9.49
2023-04-16T16:55:57.634Z,9.48
2023-04-16T16:59:00.177Z,9.47
2023-04-16T17:02:03.455Z,9.50
2023-04-16T17:05:07.487Z,9.51
2023-04-16T17:08:10.335Z,9.53
2023-04-16T17:11:14.448Z,9.56
2023-04-16T17:14:17.064Z,9.56
2023-04-16T17:17:19.654Z,9.55
2023-04-16T17:20:22.185Z,9.55
2023-04-16T17:23:24.680Z,9.52
2023-04-16T17:26:28.622Z,9.52
2023-04-16T17:29:31.240Z,9.48
2023-04-16T17:32:33.974Z,9.48
2023-04-16T17:35:36.630Z,9.45
2023-04-16T17:38:39.261Z,9.41
2023-04-16T17:41:43.128Z,9.40
2023-04-16T17:44:45.794Z,9.36
2023-04-16T17:47:48.337Z,9.33
2023-04-16T17:50:50.910Z,9.32
2023-04-16T17:53:53.479Z,9.30
2023-04-16T17:56:58.370Z,9.29
2023-04-16T18:00:00.917Z,9.25
2023-04-16T18:03:03.656Z,9.24
2023-04-16T18:06:06.684Z,9.23
2023-04-16T18:09:09.221Z,9.22
2023-04-16T18:12:13.207Z,9.18
2023-04-16T18:15:15.881Z,9.16
2023-04-16T18:18:20.017Z,9.12
2023-04-16T18:21:22.582Z,9.10
2023-04-16T18:24:25.221Z,9.04
2023-04-16T18:27:29.142Z,9.00
2023-04-16T18:30:31.666Z,8.99
2023-04-16T18:33:53.957Z,9.00
2023-04-16T18:36:56.865Z,9.00
2023-04-16T18:39:59.462Z,9.01
2023-04-16T18:43:03.403Z,9.00
2023-04-16T18:46:06.093Z,9.00
2023-04-16T18:49:08.875Z,8.99
2023-04-16T18:52:11.600Z,8.99
2023-04-16T18:55:14.134Z,8.99
2023-04-16T18:58:18.006Z,8.99
2023-04-16T19:01:20.687Z,8.96
2023-04-16T19:04:23.326Z,8.96
2023-04-16T19:07:25.901Z,8.96
2023-04-16T19:10:28.494Z,8.93
2023-04-16T19:13:32.761Z,8.93
2023-04-16T19:16:35.370Z,8.89
2023-04-16T19:19:37.955Z,8.90
2023-04-16T19:22:40.706Z,8.90
2023-04-16T19:25:43.246Z,8.91
2023-04-16T19:28:47.124Z,8.88
2023-04-16T19:31:49.743Z,8.88
2023-04-16T19:34:52.361Z,8.87
2023-04-16T19:37:56.199Z,8.86
2023-04-16T19:40:58.767Z,8.84
2023-04-16T19:44:02.657Z,8.82
2023-04-16T19:47:06.132Z,8.80
2023-04-16T19:50:09.568Z,8.78
2023-04-16T19:53:12.171Z,8.76
2023-04-16T19:56:15.867Z,8.76
2023-04-16T19:59:20.460Z,8.74
2023-04-16T20:02:23.201Z,8.72
2023-04-16T20:05:26.088Z,8.71
2023-04-16T20:08:28.659Z,8.69
2023-04-16T20:11:31.301Z,8.64
2023-04-16T20:14:35.233Z,8.60
2023-04-16T20:17:37.891Z,8.59
2023-04-16T20:20:41.418Z,8.58
2023-04-16T20:23:44.000Z,8.56
2023-04-16T20:26:46.527Z,8.57
2023-04-16T20:29:51.672Z,8.56
2023-04-16T20:32:54.193Z,8.55
2023-04-16T20:35:56.761Z,8.54
2023-04-16T20:39:02.078Z,8.54
2023-04-16T20:42:09.962Z,8.52
2023-04-16T20:45:14.314Z,8.52
2023-04-16T20:48:17.005Z,8.51
2023-04-16T20:51:19.643Z,8.53
2023-04-16T20:54:22.157Z,8.52
2023-04-16T20:57:24.708Z,8.51
2023-04-16T21:00:28.583Z,8.50
2023-04-16T21:03:31.327Z,8.52
2023-04-16T21:06:38.346Z,8.49
2023-04-16T21:09:41.196Z,8.46
2023-04-16T21:12:43.779Z,8.45
2023-04-16T21:15:47.690Z,8.42
2023-04-16T21:18:50.372Z,8.38
2023-04-16T21:21:52.949Z,8.34
2023-04-16T21:24:55.484Z,8.29
2023-04-16T21:27:58.098Z,8.31
2023-04-16T21:31:02.058Z,8.32
2023-04-16T21:34:04.647Z,8.33
2023-04-16T21:37:07.174Z,8.34
2023-04-16T21:40:10.193Z,8.36
2023-04-16T21:43:12.757Z,8.37
2023-04-16T21:46:16.691Z,8.40
2023-04-16T21:49:19.353Z,8.40
2023-04-16T21:52:21.993Z,8.44
2023-04-16T21:55:24.695Z,8.44
2023-04-16T21:58:27.265Z,8.46
2023-04-16T22:01:31.241Z,8.48
2023-04-16T22:04:38.391Z,8.49
2023-04-16T22:07:41.248Z,8.49
2023-04-16T22:10:43.850Z,8.49
2023-04-16T22:13:47.504Z,8.50
2023-04-16T22:16:52.197Z,8.51
2023-04-16T22:19:54.908Z,8.50
2023-04-16T22:22:58.570Z,8.48
2023-04-16T22:26:02.483Z,8.47
2023-04-16T22:29:05.069Z,8.45
2023-04-16T22:32:09.001Z,8.45
2023-04-16T22:35:12.458Z,8.43
2023-04-16T22:38:14.999Z,8.43
2023-04-16T22:41:17.612Z,8.42
2023-04-16T22:44:20.205Z,8.43
2023-04-16T22:47:24.117Z,8.43
2023-04-16T22:50:27.089Z,8.44
2023-04-16T22:53:29.585Z,8.42
2023-04-16T22:56:32.147Z,8.33
2023-04-16T22:59:34.738Z,8.27
2023-04-16T23:02:38.735Z,8.20
2023-04-16T23:05:41.354Z,8.15
2023-04-16T23:08:43.943Z,8.15
2023-04-16T23:11:46.519Z,8.13
2023-04-16T23:14:49.116Z,8.10
2023-04-16T23:17:53.040Z,8.07
2023-04-16T23:20:55.655Z,8.09
2023-04-16T23:23:59.073Z,8.10
2023-04-16T23:27:01.619Z,8.11
2023-04-16T23:30:04.512Z,8.13
2023-04-16T23:33:08.557Z,8.13
2023-04-16T23:36:11.294Z,8.13
2023-04-16T23:39:13.910Z,8.13
2023-04-16T23:42:16.555Z,8.15
2023-04-16T23:45:19.265Z,8.13
2023-04-16T23:48:23.118Z,8.15
2023-04-16T23:51:26.202Z,8.13
2023-04-16T23:54:28.720Z,8.14
2023-04-16T23:57:31.229Z,8.12
